createdAt,value
2018-07-15T00:00:24.125Z,4.47
2018-07-15T00:02:52.256Z,4.70
2018-07-15T00:05:20.441Z,4.03
2018-07-15T00:07:48.547Z,5.03
2018-07-15T00:10:16.661Z,5.23
2018-07-15T00:12:44.796Z,6.33
2018-07-15T00:15:12.948Z,5.00
2018-07-15T00:17:41.084Z,4.53
2018-07-15T00:20:09.195Z,3.77
2018-07-15T00:22:37.369Z,5.10
2018-07-15T00:25:05.566Z,4.60
2018-07-15T00:27:33.468Z,4.23
2018-07-15T00:30:01.608Z,3.63
2018-07-15T00:32:29.747Z,5.30
2018-07-15T00:34:58.088Z,4.93
2018-07-15T00:37:26.218Z,4.53
2018-07-15T00:39:54.332Z,4.73
2018-07-15T00:42:22.460Z,4.27
2018-07-15T00:44:50.584Z,5.13
2018-07-15T00:47:18.719Z,4.50
2018-07-15T00:49:46.864Z,4.67
2018-07-15T00:52:14.989Z,4.97
2018-07-15T00:54:43.121Z,7.67
2018-07-15T00:57:11.286Z,7.83
2018-07-15T00:59:39.419Z,5.60
2018-07-15T01:02:07.571Z,5.73
2018-07-15T01:04:35.737Z,5.50
2018-07-15T01:07:03.880Z,6.43
2018-07-15T01:09:32.088Z,4.93
2018-07-15T01:12:00.244Z,5.17
2018-07-15T01:14:28.390Z,4.70
2018-07-15T01:16:56.559Z,4.97
2018-07-15T01:19:24.682Z,5.70
2018-07-15T01:21:52.831Z,8.63
2018-07-15T01:24:20.976Z,5.10
2018-07-15T01:26:49.169Z,4.73
2018-07-15T01:29:17.293Z,6.50
2018-07-15T01:31:45.507Z,5.17
2018-07-15T01:34:13.635Z,12.53
2018-07-15T01:36:41.779Z,6.10
2018-07-15T01:39:09.957Z,6.13
2018-07-15T01:41:38.123Z,4.73
2018-07-15T01:44:06.279Z,6.43
2018-07-15T01:46:34.648Z,5.70
2018-07-15T01:49:02.793Z,5.30
2018-07-15T01:51:30.695Z,7.27
2018-07-15T01:53:58.852Z,4.93
2018-07-15T01:56:27.000Z,6.00
2018-07-15T01:58:55.135Z,4.70
2018-07-15T02:01:23.399Z,6.97
2018-07-15T02:03:51.736Z,4.97
2018-07-15T02:06:19.905Z,5.70
2018-07-15T02:08:48.073Z,6.03
2018-07-15T02:11:16.212Z,5.80
2018-07-15T02:13:44.347Z,6.17
2018-07-15T02:16:12.654Z,7.00
2018-07-15T02:18:40.812Z,6.20
2018-07-15T02:21:08.970Z,6.57
2018-07-15T02:23:37.128Z,6.60
2018-07-15T02:26:05.278Z,7.73
2018-07-15T02:28:33.508Z,5.57
2018-07-15T02:31:01.674Z,6.77
2018-07-15T02:33:29.861Z,5.83
2018-07-15T02:35:58.017Z,5.80
2018-07-15T02:38:26.168Z,7.10
2018-07-15T02:40:54.305Z,7.43
2018-07-15T02:43:22.462Z,7.27
2018-07-15T02:45:50.612Z,7.17
2018-07-15T02:48:18.751Z,5.60
2018-07-15T02:50:46.911Z,7.10
2018-07-15T02:53:15.047Z,6.77
2018-07-15T02:55:43.172Z,7.00
2018-07-15T02:58:11.323Z,7.70
2018-07-15T03:00:39.461Z,6.47
2018-07-15T03:03:07.603Z,7.73
2018-07-15T03:05:35.731Z,7.73
2018-07-15T03:08:03.885Z,6.90
2018-07-15T03:10:32.018Z,7.53
2018-07-15T03:13:00.172Z,8.73
2018-07-15T03:15:28.280Z,7.30
2018-07-15T03:17:56.424Z,7.80
2018-07-15T03:20:24.542Z,7.17
2018-07-15T03:22:53.071Z,6.87
2018-07-15T03:25:21.195Z,7.37
2018-07-15T03:27:49.360Z,7.80
2018-07-15T03:30:17.500Z,6.73
2018-07-15T03:32:45.641Z,6.40
2018-07-15T03:35:13.785Z,7.27
2018-07-15T03:37:41.919Z,6.90
2018-07-15T03:40:10.097Z,6.30
2018-07-15T03:42:38.232Z,7.33
2018-07-15T03:45:06.199Z,7.30
2018-07-15T03:47:34.276Z,7.80
2018-07-15T03:50:02.415Z,7.80
2018-07-15T03:52:30.556Z,8.30
2018-07-15T03:54:58.803Z,7.20
2018-07-15T03:57:26.992Z,7.00
2018-07-15T03:59:55.132Z,6.60
2018-07-15T04:02:23.270Z,8.73
2018-07-15T04:04:51.403Z,7.40
2018-07-15T04:07:19.526Z,7.50
2018-07-15T04:09:47.653Z,7.20
2018-07-15T04:12:15.759Z,7.87
2018-07-15T04:14:43.887Z,8.07
2018-07-15T04:17:12.026Z,6.80
2018-07-15T04:19:40.152Z,7.47
2018-07-15T04:22:08.331Z,7.60
2018-07-15T04:24:36.472Z,7.20
2018-07-15T04:27:04.586Z,7.87
2018-07-15T04:29:32.725Z,7.07
2018-07-15T04:32:00.872Z,7.30
2018-07-15T04:34:29.053Z,9.20
2018-07-15T04:36:57.256Z,6.57
2018-07-15T04:39:25.435Z,6.87
2018-07-15T04:41:53.569Z,7.70
2018-07-15T04:44:21.699Z,7.03
2018-07-15T04:46:49.828Z,6.80
2018-07-15T04:49:17.951Z,7.63
2018-07-15T04:51:46.068Z,7.47
2018-07-15T04:54:14.193Z,8.73
2018-07-15T04:56:42.303Z,8.60
2018-07-15T04:59:10.444Z,8.90
2018-07-15T05:01:43.405Z,8.20
2018-07-15T05:04:13.632Z,8.33
2018-07-15T05:06:41.819Z,9.97
2018-07-15T05:09:09.984Z,7.63
2018-07-15T05:11:38.583Z,14.67
2018-07-15T05:14:07.485Z,10.40
2018-07-15T05:16:35.943Z,8.07
2018-07-15T05:19:04.120Z,8.57
2018-07-15T05:21:32.300Z,8.23
2018-07-15T05:24:00.447Z,8.07
2018-07-15T05:26:28.607Z,9.10
2018-07-15T05:28:56.781Z,9.73
2018-07-15T05:31:24.916Z,8.80
2018-07-15T05:33:53.062Z,7.60
2018-07-15T05:36:21.240Z,7.77
2018-07-15T05:38:49.485Z,8.20
2018-07-15T05:41:17.618Z,9.53
2018-07-15T05:43:45.771Z,7.00
2018-07-15T05:46:13.690Z,7.30
2018-07-15T05:48:41.837Z,6.37
2018-07-15T05:51:09.966Z,7.20
2018-07-15T05:53:38.151Z,7.20
2018-07-15T05:56:06.401Z,7.30
2018-07-15T05:58:34.579Z,6.20
2018-07-15T06:01:02.755Z,6.43
2018-07-15T06:03:30.939Z,7.03
2018-07-15T06:05:59.093Z,6.67
2018-07-15T06:08:27.247Z,6.47
2018-07-15T06:10:55.392Z,6.80
2018-07-15T06:13:23.535Z,6.90
2018-07-15T06:15:51.721Z,6.60
2018-07-15T06:18:19.872Z,5.43
2018-07-15T06:20:48.000Z,5.37
2018-07-15T06:23:16.173Z,5.43
2018-07-15T06:25:44.289Z,5.63
2018-07-15T06:28:12.438Z,5.40
2018-07-15T06:30:40.680Z,4.87
2018-07-15T06:33:08.796Z,5.10
2018-07-15T06:35:36.936Z,4.67
2018-07-15T06:38:05.115Z,5.37
2018-07-15T06:40:33.256Z,5.10
2018-07-15T06:43:01.448Z,4.60
2018-07-15T06:45:29.607Z,6.30
2018-07-15T06:47:57.737Z,4.83
2018-07-15T06:50:25.914Z,5.47
2018-07-15T06:52:54.049Z,7.03
2018-07-15T06:55:22.169Z,4.80
2018-07-15T06:57:50.303Z,6.10
2018-07-15T07:00:18.606Z,4.20
2018-07-15T07:02:46.732Z,4.47
2018-07-15T07:05:15.044Z,4.70
2018-07-15T07:07:43.302Z,4.07
2018-07-15T07:10:11.292Z,5.70
2018-07-15T07:12:39.444Z,4.67
2018-07-15T07:15:07.583Z,4.87
2018-07-15T07:17:35.733Z,4.43
2018-07-15T07:20:03.872Z,3.83
2018-07-15T07:22:31.999Z,4.20
2018-07-15T07:25:00.295Z,6.30
2018-07-15T07:27:28.425Z,6.67
2018-07-15T07:29:56.568Z,3.53
2018-07-15T07:32:24.795Z,5.43
2018-07-15T07:34:52.951Z,2.93
2018-07-15T07:37:20.862Z,3.77
2018-07-15T07:39:48.989Z,3.80
2018-07-15T07:42:17.111Z,2.77
2018-07-15T07:44:45.269Z,4.30
2018-07-15T07:47:13.386Z,3.00
2018-07-15T07:49:41.561Z,3.27
2018-07-15T07:52:09.959Z,5.50
2018-07-15T07:54:38.214Z,3.00
2018-07-15T07:57:06.713Z,3.20
2018-07-15T07:59:34.928Z,2.70
2018-07-15T08:02:03.053Z,4.17
2018-07-15T08:04:31.187Z,3.03
2018-07-15T08:06:59.385Z,2.93
2018-07-15T08:09:27.495Z,2.30
2018-07-15T08:11:55.627Z,2.93
2018-07-15T08:14:23.742Z,2.60
2018-07-15T08:16:51.938Z,3.27
2018-07-15T08:19:20.073Z,3.83
2018-07-15T08:21:48.293Z,5.10
2018-07-15T08:24:16.449Z,2.70
2018-07-15T08:26:44.675Z,3.40
2018-07-15T08:29:12.885Z,2.90
2018-07-15T08:31:41.040Z,4.07
2018-07-15T08:34:09.177Z,2.80
2018-07-15T08:36:37.312Z,5.10
2018-07-15T08:39:06.656Z,2.70
2018-07-15T08:41:34.982Z,3.60
2018-07-15T08:44:03.155Z,6.37
2018-07-15T08:46:31.280Z,2.70
2018-07-15T08:48:59.501Z,2.93
2018-07-15T08:51:27.692Z,3.20
2018-07-15T08:53:55.922Z,2.77
2018-07-15T08:56:24.047Z,3.10
2018-07-15T08:58:52.213Z,4.63
2018-07-15T09:01:20.389Z,2.80
2018-07-15T09:03:48.560Z,3.50
2018-07-15T09:06:16.756Z,2.83
2018-07-15T09:08:44.895Z,2.50
2018-07-15T09:11:13.056Z,2.37
2018-07-15T09:13:41.176Z,2.17
2018-07-15T09:16:09.329Z,2.07
2018-07-15T09:18:37.495Z,2.00
2018-07-15T09:21:05.701Z,3.00
2018-07-15T09:23:33.833Z,2.70
2018-07-15T09:26:02.569Z,2.53
2018-07-15T09:28:31.350Z,2.43
2018-07-15T09:30:59.796Z,2.20
2018-07-15T09:33:28.012Z,2.30
2018-07-15T09:35:55.926Z,1.67
2018-07-15T09:38:24.092Z,1.80
2018-07-15T09:40:52.401Z,2.03
2018-07-15T09:43:20.575Z,1.90
2018-07-15T09:45:48.721Z,3.27
2018-07-15T09:48:17.120Z,2.03
2018-07-15T09:50:45.275Z,2.70
2018-07-15T09:53:13.475Z,1.80
2018-07-15T09:55:41.622Z,2.67
2018-07-15T09:58:09.831Z,1.63
2018-07-15T10:00:54.498Z,1.40
2018-07-15T10:03:22.766Z,2.10
2018-07-15T10:05:51.072Z,1.40
2018-07-15T10:08:19.655Z,2.40
2018-07-15T10:10:47.879Z,1.57
2018-07-15T10:13:16.128Z,1.43
2018-07-15T10:15:44.335Z,1.40
2018-07-15T10:18:12.616Z,1.20
2018-07-15T10:20:40.875Z,1.77
2018-07-15T10:23:09.010Z,1.33
2018-07-15T10:25:37.398Z,0.90
2018-07-15T10:28:05.634Z,1.10
2018-07-15T10:30:33.963Z,1.77
2018-07-15T10:33:02.269Z,1.30
2018-07-15T10:35:30.498Z,1.70
2018-07-15T10:37:58.805Z,3.03
2018-07-15T10:40:27.820Z,1.10
2018-07-15T10:42:56.108Z,1.13
2018-07-15T10:45:24.314Z,1.17
2018-07-15T10:47:52.654Z,3.00
2018-07-15T10:50:20.827Z,4.73
2018-07-15T10:52:49.027Z,1.20
2018-07-15T10:55:18.086Z,1.70
2018-07-15T10:57:46.013Z,1.20
2018-07-15T11:00:14.308Z,1.00
2018-07-15T11:02:42.982Z,0.93
2018-07-15T11:05:11.132Z,1.27
2018-07-15T11:07:39.346Z,1.27
2018-07-15T11:10:07.482Z,1.00
2018-07-15T11:12:35.629Z,1.27
2018-07-15T11:15:03.896Z,0.93
2018-07-15T11:17:32.055Z,1.07
2018-07-15T11:20:00.192Z,1.07
2018-07-15T11:22:28.376Z,1.83
2018-07-15T11:24:56.499Z,0.93
2018-07-15T11:27:24.615Z,1.20
2018-07-15T11:29:52.843Z,1.27
2018-07-15T11:32:20.979Z,1.33
2018-07-15T11:34:49.124Z,1.13
2018-07-15T11:37:17.243Z,2.00
2018-07-15T11:39:45.385Z,1.07
2018-07-15T11:42:13.501Z,1.43
2018-07-15T11:44:41.501Z,1.30
2018-07-15T11:47:09.620Z,2.77
2018-07-15T11:49:37.821Z,1.17
2018-07-15T11:52:05.968Z,1.83
2018-07-15T11:54:34.132Z,1.53
2018-07-15T11:57:02.323Z,1.50
2018-07-15T11:59:30.497Z,1.13
2018-07-15T12:01:58.673Z,1.50
2018-07-15T12:04:26.866Z,1.40
2018-07-15T12:06:54.989Z,1.23
2018-07-15T12:09:23.188Z,1.20
2018-07-15T12:11:51.349Z,0.93
2018-07-15T12:14:19.663Z,1.10
2018-07-15T12:16:47.938Z,1.40
2018-07-15T12:19:16.103Z,1.07
2018-07-15T12:21:44.278Z,1.30
2018-07-15T12:24:12.443Z,1.53
2018-07-15T12:26:40.575Z,1.30
2018-07-15T12:29:08.946Z,1.07
2018-07-15T12:31:37.075Z,1.10
2018-07-15T12:34:05.249Z,1.07
2018-07-15T12:36:33.407Z,1.07
2018-07-15T12:39:01.578Z,1.20
2018-07-15T12:41:29.754Z,1.13
2018-07-15T12:43:57.886Z,1.53
2018-07-15T12:46:26.028Z,1.37
2018-07-15T12:48:54.169Z,1.37
2018-07-15T12:51:22.357Z,1.87
2018-07-15T12:53:50.505Z,4.10
2018-07-15T12:56:18.667Z,1.50
2018-07-15T12:58:46.814Z,1.00
2018-07-15T13:01:15.008Z,1.27
2018-07-15T13:03:43.132Z,1.50
2018-07-15T13:06:11.289Z,1.33
2018-07-15T13:08:39.452Z,2.20
2018-07-15T13:11:07.591Z,2.20
2018-07-15T13:13:35.719Z,1.50
2018-07-15T13:16:03.872Z,1.60
2018-07-15T13:18:32.017Z,1.57
2018-07-15T13:21:00.184Z,1.30
2018-07-15T13:23:28.337Z,1.00
2018-07-15T13:25:56.554Z,1.23
2018-07-15T13:28:24.667Z,1.20
2018-07-15T13:30:52.806Z,1.00
2018-07-15T13:33:20.948Z,0.80
2018-07-15T13:35:49.092Z,3.20
2018-07-15T13:38:17.216Z,1.23
2018-07-15T13:40:45.364Z,1.07
2018-07-15T13:43:13.491Z,3.37
2018-07-15T13:45:41.669Z,1.30
2018-07-15T13:48:09.843Z,1.03
2018-07-15T13:50:37.972Z,1.20
2018-07-15T13:53:06.136Z,1.63
2018-07-15T13:55:34.348Z,0.90
2018-07-15T13:58:02.489Z,1.53
2018-07-15T14:00:30.631Z,1.50
2018-07-15T14:02:58.762Z,1.27
2018-07-15T14:05:26.982Z,1.67
2018-07-15T14:07:55.321Z,1.27
2018-07-15T14:10:23.460Z,1.63
2018-07-15T14:12:51.598Z,1.20
2018-07-15T14:15:19.663Z,0.80
2018-07-15T14:17:47.636Z,1.13
2018-07-15T14:20:15.812Z,0.70
2018-07-15T14:22:43.988Z,1.20
2018-07-15T14:25:12.124Z,0.73
2018-07-15T14:27:40.283Z,1.10
2018-07-15T14:30:08.456Z,0.67
2018-07-15T14:32:37.300Z,0.80
2018-07-15T14:35:05.751Z,0.87
2018-07-15T14:37:34.058Z,1.53
2018-07-15T14:40:02.194Z,0.80
2018-07-15T14:42:30.372Z,0.90
2018-07-15T14:44:58.525Z,1.50
2018-07-15T14:47:26.759Z,2.07
2018-07-15T14:49:54.884Z,2.40
2018-07-15T14:52:23.023Z,1.13
2018-07-15T14:54:51.139Z,0.93
2018-07-15T14:57:19.267Z,3.07
2018-07-15T14:59:47.383Z,1.90
2018-07-15T15:02:15.508Z,1.50
2018-07-15T15:04:43.616Z,2.40
2018-07-15T15:07:11.841Z,0.87
2018-07-15T15:09:39.979Z,1.00
2018-07-15T15:12:08.103Z,2.20
2018-07-15T15:14:36.217Z,1.40
2018-07-15T15:17:04.472Z,1.13
2018-07-15T15:19:32.673Z,1.10
2018-07-15T15:22:00.829Z,1.00
2018-07-15T15:24:29.003Z,1.20
2018-07-15T15:26:57.204Z,1.30
2018-07-15T15:29:25.615Z,0.80
2018-07-15T15:31:53.785Z,1.20
2018-07-15T15:34:22.268Z,1.10
2018-07-15T15:36:50.426Z,1.50
2018-07-15T15:39:19.094Z,2.33
2018-07-15T15:41:47.233Z,0.90
2018-07-15T15:44:15.351Z,4.80
2018-07-15T15:46:43.536Z,1.40
2018-07-15T15:49:11.658Z,1.27
2018-07-15T15:51:39.782Z,2.87
2018-07-15T15:54:07.929Z,1.10
2018-07-15T15:56:36.049Z,1.10
2018-07-15T15:59:04.212Z,1.40
2018-07-15T16:01:32.331Z,1.07
2018-07-15T16:04:00.450Z,1.33
2018-07-15T16:06:28.682Z,1.87
2018-07-15T16:08:56.804Z,1.27
2018-07-15T16:11:24.991Z,1.30
2018-07-15T16:13:53.956Z,1.23
2018-07-15T16:16:22.099Z,1.00
2018-07-15T16:18:50.239Z,2.50
2018-07-15T16:21:18.368Z,2.20
2018-07-15T16:23:46.557Z,3.10
2018-07-15T16:26:14.731Z,0.90
2018-07-15T16:28:42.875Z,1.53
2018-07-15T16:31:11.068Z,1.07
2018-07-15T16:33:39.431Z,1.73
2018-07-15T16:36:07.550Z,1.40
2018-07-15T16:38:35.683Z,12.83
2018-07-15T16:41:03.802Z,1.77
2018-07-15T16:43:31.956Z,0.87
2018-07-15T16:46:00.133Z,1.63
2018-07-15T16:48:28.276Z,2.80
2018-07-15T16:50:56.459Z,1.37
2018-07-15T16:53:24.683Z,1.23
2018-07-15T16:55:52.916Z,1.27
2018-07-15T16:58:21.048Z,1.30
2018-07-15T17:00:49.238Z,2.03
2018-07-15T17:03:17.437Z,4.43
2018-07-15T17:05:45.496Z,1.20
2018-07-15T17:08:13.672Z,1.70
2018-07-15T17:10:41.812Z,1.10
2018-07-15T17:13:09.937Z,2.30
2018-07-15T17:15:38.744Z,2.33
2018-07-15T17:18:06.884Z,3.80
2018-07-15T17:20:34.874Z,1.63
2018-07-15T17:23:02.973Z,1.20
2018-07-15T17:25:31.099Z,1.83
2018-07-15T17:27:59.231Z,1.30
2018-07-15T17:30:27.351Z,3.53
2018-07-15T17:32:55.468Z,1.53
2018-07-15T17:35:23.591Z,1.07
2018-07-15T17:37:51.721Z,3.23
2018-07-15T17:40:19.843Z,2.43
2018-07-15T17:42:47.977Z,1.90
2018-07-15T17:45:16.108Z,1.30
2018-07-15T17:47:44.304Z,1.10
2018-07-15T17:50:12.447Z,1.97
2018-07-15T17:52:40.579Z,1.03
2018-07-15T17:55:08.675Z,3.23
2018-07-15T17:57:36.798Z,1.97
2018-07-15T18:00:04.945Z,1.30
2018-07-15T18:02:33.101Z,1.00
2018-07-15T18:05:01.321Z,2.30
2018-07-15T18:07:29.356Z,1.00
2018-07-15T18:09:57.937Z,2.97
2018-07-15T18:12:26.886Z,1.90
2018-07-15T18:14:55.889Z,1.50
2018-07-15T18:17:24.807Z,1.20
2018-07-15T18:19:53.801Z,1.20
2018-07-15T18:22:22.846Z,1.60
2018-07-15T18:24:51.812Z,3.03
2018-07-15T18:27:20.593Z,3.10
2018-07-15T18:29:49.592Z,1.30
2018-07-15T18:32:18.625Z,1.27
2018-07-15T18:34:47.602Z,1.50
2018-07-15T18:37:16.540Z,1.20
2018-07-15T18:39:44.737Z,1.40
2018-07-15T18:42:12.892Z,1.30
2018-07-15T18:44:41.035Z,2.30
2018-07-15T18:47:09.142Z,1.00
2018-07-15T18:49:37.269Z,1.13
2018-07-15T18:52:05.386Z,1.10
2018-07-15T18:54:33.511Z,1.47
2018-07-15T18:57:01.670Z,1.37
2018-07-15T18:59:29.819Z,1.23
2018-07-15T19:01:57.955Z,2.80
2018-07-15T19:04:26.063Z,1.00
2018-07-15T19:06:54.192Z,1.70
2018-07-15T19:09:22.320Z,1.10
2018-07-15T19:11:50.422Z,1.90
2018-07-15T19:14:18.949Z,1.73
2018-07-15T19:16:47.088Z,4.30
2018-07-15T19:19:15.268Z,1.10
2018-07-15T19:21:43.433Z,1.20
2018-07-15T19:24:11.604Z,1.20
2018-07-15T19:26:39.719Z,1.10
2018-07-15T19:29:07.843Z,2.73
2018-07-15T19:31:35.980Z,1.77
2018-07-15T19:34:04.096Z,1.23
2018-07-15T19:36:32.245Z,2.20
2018-07-15T19:39:00.528Z,2.23
2018-07-15T19:41:28.594Z,4.20
2018-07-15T19:43:56.814Z,1.47
2018-07-15T19:46:24.990Z,2.80
2018-07-15T19:48:53.189Z,3.07
2018-07-15T19:51:21.418Z,2.00
2018-07-15T19:53:49.620Z,5.33
2018-07-15T19:56:17.750Z,3.10
2018-07-15T19:58:46.343Z,2.27
2018-07-15T20:01:14.524Z,5.53
2018-07-15T20:03:42.599Z,5.27
2018-07-15T20:06:10.809Z,4.67
2018-07-15T20:08:38.944Z,1.60
2018-07-15T20:11:07.050Z,2.47
2018-07-15T20:13:35.169Z,2.83
2018-07-15T20:16:03.304Z,1.70
2018-07-15T20:18:31.435Z,3.83
2018-07-15T20:20:59.659Z,2.90
2018-07-15T20:23:27.711Z,4.13
2018-07-15T20:25:55.840Z,5.63
2018-07-15T20:28:24.000Z,9.03
2018-07-15T20:30:52.134Z,7.27
2018-07-15T20:33:20.273Z,12.80
2018-07-15T20:35:48.400Z,12.13
2018-07-15T20:38:16.514Z,8.63
2018-07-15T20:40:44.650Z,6.60
2018-07-15T20:43:12.539Z,8.93
2018-07-15T20:45:40.670Z,6.23
2018-07-15T20:48:08.780Z,3.70
2018-07-15T20:50:37.068Z,6.63
2018-07-15T20:53:05.323Z,7.37
2018-07-15T20:55:33.479Z,3.93
2018-07-15T20:58:01.681Z,3.17
2018-07-15T21:00:29.844Z,3.73
2018-07-15T21:02:57.971Z,2.37
2018-07-15T21:05:26.264Z,7.43
2018-07-15T21:07:54.375Z,3.30
2018-07-15T21:10:22.564Z,6.20
2018-07-15T21:12:50.701Z,10.60
2018-07-15T21:15:19.075Z,6.40
2018-07-15T21:17:47.445Z,8.97
2018-07-15T21:20:15.756Z,4.43
2018-07-15T21:22:43.904Z,4.43
2018-07-15T21:25:12.120Z,3.23
2018-07-15T21:27:40.274Z,2.70
2018-07-15T21:30:08.412Z,4.00
2018-07-15T21:32:36.552Z,2.03
2018-07-15T21:35:04.707Z,4.50
2018-07-15T21:37:32.867Z,5.03
2018-07-15T21:40:01.664Z,2.27
2018-07-15T21:42:29.860Z,2.70
2018-07-15T21:44:58.023Z,3.40
2018-07-15T21:47:26.140Z,2.80
2018-07-15T21:49:54.296Z,2.47
2018-07-15T21:52:22.412Z,2.77
2018-07-15T21:54:50.540Z,4.30
2018-07-15T21:57:18.656Z,4.93
2018-07-15T21:59:46.788Z,2.50
2018-07-15T22:02:15.215Z,3.83
2018-07-15T22:04:43.358Z,5.03
2018-07-15T22:07:22.911Z,6.57
2018-07-15T22:10:01.223Z,2.40
2018-07-15T22:12:29.366Z,2.10
2018-07-15T22:14:57.508Z,5.13
2018-07-15T22:17:25.637Z,2.20
2018-07-15T22:19:53.751Z,2.60
2018-07-15T22:22:21.887Z,2.60
2018-07-15T22:24:50.026Z,2.33
2018-07-15T22:27:18.165Z,2.67
2018-07-15T22:29:46.292Z,5.87
2018-07-15T22:32:14.428Z,4.80
2018-07-15T22:34:42.526Z,2.50
2018-07-15T22:37:10.779Z,3.50
2018-07-15T22:39:38.896Z,2.53
2018-07-15T22:42:07.066Z,2.60
2018-07-15T22:44:35.171Z,2.20
2018-07-15T22:47:03.311Z,2.53
2018-07-15T22:49:31.442Z,2.47
2018-07-15T22:51:59.567Z,2.90
2018-07-15T22:54:27.682Z,2.90
2018-07-15T22:56:55.806Z,5.30
2018-07-15T22:59:23.965Z,2.70
2018-07-15T23:01:52.107Z,2.40
2018-07-15T23:05:32.881Z,3.53
2018-07-15T23:08:01.020Z,4.40
2018-07-15T23:10:29.257Z,2.40
2018-07-15T23:12:57.419Z,4.50
2018-07-15T23:15:25.589Z,5.73
2018-07-15T23:17:53.704Z,2.63
2018-07-15T23:20:21.850Z,5.33
2018-07-15T23:22:50.100Z,3.03
2018-07-15T23:25:18.496Z,3.50
2018-07-15T23:27:46.720Z,8.00
2018-07-15T23:30:14.913Z,3.33
2018-07-15T23:32:43.331Z,3.37
2018-07-15T23:35:11.489Z,3.70
2018-07-15T23:37:39.608Z,3.30
2018-07-15T23:40:07.754Z,3.63
2018-07-15T23:42:36.352Z,3.90
2018-07-15T23:45:04.921Z,2.90
2018-07-15T23:47:33.033Z,3.50
2018-07-15T23:50:01.214Z,3.33
2018-07-15T23:52:29.373Z,3.40
2018-07-15T23:54:57.506Z,3.40
2018-07-15T23:57:25.636Z,3.00
2018-07-15T23:59:53.784Z,3.10
